createdAt,value
2022-08-17T00:00:43.957Z,8.40
2022-08-17T00:03:19.682Z,8.80
2022-08-17T00:06:12.337Z,8.80
2022-08-17T00:09:01.741Z,8.00
2022-08-17T00:11:38.707Z,9.00
2022-08-17T00:14:19.975Z,8.20
2022-08-17T00:16:57.247Z,9.00
2022-08-17T00:19:27.038Z,8.30
2022-08-17T00:22:33.811Z,8.00
2022-08-17T00:24:49.226Z,9.10
2022-08-17T00:27:18.733Z,8.50
2022-08-17T00:29:47.348Z,9.00
2022-08-17T00:33:14.482Z,9.30
2022-08-17T00:35:08.250Z,9.50
2022-08-17T00:37:36.905Z,8.70
2022-08-17T00:40:07.220Z,9.40
2022-08-17T00:42:36.368Z,9.90
2022-08-17T00:45:08.407Z,8.40
2022-08-17T00:47:37.071Z,8.20
2022-08-17T00:50:09.776Z,8.50
2022-08-17T00:52:48.153Z,9.50
2022-08-17T00:55:17.860Z,8.70
2022-08-17T00:57:55.216Z,9.00
2022-08-17T01:00:40.683Z,8.90
2022-08-17T01:03:19.776Z,8.80
2022-08-17T01:05:52.137Z,8.80
2022-08-17T01:08:26.297Z,9.10
2022-08-17T01:11:01.858Z,9.30
2022-08-17T01:13:43.177Z,8.90
2022-08-17T01:16:22.323Z,9.50
2022-08-17T01:18:55.649Z,8.90
2022-08-17T01:21:52.158Z,9.20
2022-08-17T01:24:21.365Z,11.00
2022-08-17T01:26:50.594Z,10.00
2022-08-17T01:29:22.523Z,9.70
2022-08-17T01:31:59.080Z,10.20
2022-08-17T01:34:42.429Z,10.50
2022-08-17T01:37:15.117Z,11.10
2022-08-17T01:39:56.365Z,10.30
2022-08-17T01:42:36.853Z,9.90
2022-08-17T01:45:13.023Z,10.60
2022-08-17T01:47:42.321Z,10.30
2022-08-17T01:50:20.020Z,10.80
2022-08-17T01:52:54.373Z,9.30
2022-08-17T01:55:32.344Z,10.60
2022-08-17T01:58:02.144Z,11.80
2022-08-17T02:01:00.279Z,11.00
2022-08-17T02:03:23.115Z,10.50
2022-08-17T02:05:53.690Z,10.40
2022-08-17T02:08:36.984Z,10.30
2022-08-17T02:11:16.935Z,9.90
2022-08-17T02:13:48.645Z,10.90
2022-08-17T02:16:26.501Z,11.00
2022-08-17T02:19:14.382Z,10.30
2022-08-17T02:21:46.072Z,10.90
2022-08-17T02:24:59.842Z,10.60
2022-08-17T02:27:18.294Z,10.50
2022-08-17T02:29:47.013Z,10.50
2022-08-17T02:32:28.107Z,10.70
2022-08-17T02:34:58.981Z,10.60
2022-08-17T02:37:32.091Z,11.20
2022-08-17T02:40:00.947Z,11.10
2022-08-17T02:42:41.091Z,11.90
2022-08-17T02:45:18.149Z,12.00
2022-08-17T02:47:47.884Z,12.10
2022-08-17T02:50:20.809Z,11.00
2022-08-17T02:55:35.546Z,12.80
2022-08-17T02:58:05.283Z,12.50
2022-08-17T03:00:41.273Z,12.90
2022-08-17T03:03:13.898Z,13.30
2022-08-17T03:05:43.214Z,12.60
2022-08-17T03:08:13.383Z,11.20
2022-08-17T03:10:44.415Z,10.80
2022-08-17T03:13:14.941Z,10.60
2022-08-17T03:15:45.663Z,10.80
2022-08-17T03:18:24.190Z,10.70
2022-08-17T03:21:01.637Z,12.30
2022-08-17T03:23:32.571Z,11.80
2022-08-17T03:26:01.575Z,11.00
2022-08-17T03:28:31.062Z,11.90
2022-08-17T03:30:59.788Z,11.40
2022-08-17T03:33:28.373Z,11.70
2022-08-17T03:35:57.431Z,12.10
2022-08-17T03:38:26.710Z,12.80
2022-08-17T03:40:59.478Z,11.80
2022-08-17T03:43:31.756Z,12.40
2022-08-17T03:46:34.190Z,12.20
2022-08-17T03:49:25.940Z,11.70
2022-08-17T03:52:15.052Z,11.70
2022-08-17T03:55:03.444Z,11.30
2022-08-17T03:57:32.562Z,11.20
2022-08-17T04:00:01.374Z,12.00
2022-08-17T04:02:42.987Z,12.10
2022-08-17T04:05:11.623Z,12.30
2022-08-17T04:07:40.373Z,12.70
2022-08-17T04:10:09.267Z,12.20
2022-08-17T04:12:53.143Z,12.00
2022-08-17T04:15:23.260Z,11.80
2022-08-17T04:17:53.266Z,12.90
2022-08-17T04:20:24.526Z,11.90
2022-08-17T04:23:10.018Z,13.70
2022-08-17T04:25:43.744Z,21.10
2022-08-17T04:28:16.163Z,44.90
2022-08-17T04:33:25.846Z,26.00
2022-08-17T04:35:59.383Z,27.40
2022-08-17T04:38:35.664Z,17.10
2022-08-17T04:41:24.085Z,14.80
2022-08-17T04:43:58.694Z,13.30
2022-08-17T04:46:36.358Z,14.30
2022-08-17T04:49:11.716Z,12.90
2022-08-17T04:51:54.705Z,13.00
2022-08-17T04:54:25.578Z,13.50
2022-08-17T04:56:54.287Z,13.30
2022-08-17T04:59:23.452Z,13.60
2022-08-17T05:01:52.811Z,13.70
2022-08-17T05:04:33.802Z,13.50
2022-08-17T05:07:04.943Z,11.40
2022-08-17T05:09:33.697Z,10.30
2022-08-17T05:12:03.349Z,12.80
2022-08-17T05:14:33.650Z,13.40
2022-08-17T05:17:07.234Z,13.00
2022-08-17T05:19:38.277Z,12.50
2022-08-17T05:22:07.056Z,13.60
2022-08-17T05:24:40.731Z,13.40
2022-08-17T05:27:15.897Z,13.40
2022-08-17T05:29:48.108Z,12.80
2022-08-17T05:32:39.480Z,12.00
2022-08-17T05:35:06.811Z,12.40
2022-08-17T05:37:35.506Z,9.50
2022-08-17T05:40:05.250Z,11.50
2022-08-17T05:42:33.964Z,12.00
2022-08-17T05:45:02.572Z,12.60
2022-08-17T05:47:31.583Z,11.60
2022-08-17T05:50:02.147Z,10.60
2022-08-17T05:53:18.590Z,10.50
2022-08-17T05:56:29.354Z,11.20
2022-08-17T05:59:17.308Z,11.20
2022-08-17T06:02:05.729Z,10.10
2022-08-17T06:05:18.922Z,10.60
2022-08-17T06:08:02.878Z,9.40
2022-08-17T06:10:49.559Z,10.10
2022-08-17T06:13:42.184Z,8.60
2022-08-17T06:16:33.152Z,10.30
2022-08-17T06:19:23.615Z,9.90
2022-08-17T06:21:55.916Z,9.40
2022-08-17T06:24:44.216Z,8.50
2022-08-17T06:27:18.975Z,8.30
2022-08-17T06:30:01.304Z,8.60
2022-08-17T06:32:30.158Z,8.30
2022-08-17T06:35:01.628Z,9.00
2022-08-17T06:38:36.891Z,9.10
2022-08-17T06:41:54.950Z,7.80
2022-08-17T06:44:50.057Z,8.00
2022-08-17T06:48:13.383Z,7.30
2022-08-17T06:50:53.673Z,6.10
2022-08-17T06:53:29.553Z,5.80
2022-08-17T06:56:25.805Z,5.60
2022-08-17T07:01:23.219Z,5.70
2022-08-17T07:04:19.375Z,7.40
2022-08-17T07:07:27.200Z,6.80
2022-08-17T07:10:00.428Z,7.90
2022-08-17T07:12:38.669Z,8.20
2022-08-17T07:15:26.380Z,7.60
2022-08-17T07:17:55.962Z,6.90
2022-08-17T07:20:25.460Z,7.20
2022-08-17T07:23:34.793Z,6.70
2022-08-17T07:26:09.549Z,7.50
2022-08-17T07:28:40.796Z,7.10
2022-08-17T07:31:09.666Z,6.70
2022-08-17T07:33:39.653Z,6.60
2022-08-17T07:36:30.066Z,6.60
2022-08-17T07:38:59.105Z,7.20
2022-08-17T07:41:53.334Z,8.20
2022-08-17T07:44:21.066Z,7.10
2022-08-17T07:47:11.869Z,6.70
2022-08-17T07:49:46.573Z,6.60
2022-08-17T07:52:51.167Z,8.80
2022-08-17T07:55:35.637Z,9.10
2022-08-17T07:58:04.292Z,8.30
2022-08-17T08:00:34.025Z,8.80
2022-08-17T08:03:16.836Z,8.30
2022-08-17T08:05:56.568Z,8.60
2022-08-17T08:08:37.903Z,7.70
2022-08-17T08:11:18.098Z,8.40
2022-08-17T08:13:46.904Z,7.80
2022-08-17T08:16:26.259Z,8.00
2022-08-17T08:19:02.147Z,9.00
2022-08-17T08:21:52.284Z,8.60
2022-08-17T08:24:32.929Z,8.50
2022-08-17T08:27:41.426Z,8.60
2022-08-17T08:30:19.598Z,8.40
2022-08-17T08:32:57.682Z,9.20
2022-08-17T08:39:09.344Z,9.40
2022-08-17T08:46:07.084Z,9.10
2022-08-17T08:49:12.070Z,8.90
2022-08-17T08:51:58.067Z,8.30
2022-08-17T08:54:48.935Z,10.30
2022-08-17T08:57:41.727Z,9.40
2022-08-17T09:00:20.799Z,9.70
2022-08-17T09:19:00.247Z,10.50
2022-08-17T09:21:18.084Z,9.90
2022-08-17T09:24:26.623Z,9.80
2022-08-17T09:27:19.068Z,10.00
2022-08-17T09:30:01.048Z,10.80
2022-08-17T09:32:42.976Z,10.20
2022-08-17T09:35:37.470Z,10.40
2022-08-17T09:38:15.191Z,9.50
2022-08-17T09:41:16.401Z,9.80
2022-08-17T09:44:27.149Z,9.90
2022-08-17T09:47:10.668Z,9.50
2022-08-17T09:50:08.978Z,9.00
2022-08-17T09:52:38.137Z,8.60
2022-08-17T09:55:07.311Z,8.70
2022-08-17T09:57:49.500Z,8.50
2022-08-17T10:00:32.800Z,8.30
2022-08-17T10:03:28.485Z,9.20
2022-08-17T10:06:06.575Z,9.10
2022-08-17T10:09:13.497Z,8.50
2022-08-17T10:12:16.730Z,9.00
2022-08-17T10:15:11.523Z,8.80
2022-08-17T10:17:56.634Z,8.50
2022-08-17T10:20:45.474Z,9.00
2022-08-17T10:23:45.207Z,8.90
2022-08-17T10:26:27.279Z,8.30
2022-08-17T10:29:20.400Z,8.60
2022-08-17T10:32:05.004Z,8.10
2022-08-17T10:35:04.366Z,8.10
2022-08-17T10:37:56.909Z,8.00
2022-08-17T10:40:37.226Z,8.10
2022-08-17T10:43:36.542Z,8.10
2022-08-17T10:46:52.554Z,8.30
2022-08-17T10:49:21.529Z,8.40
2022-08-17T10:51:57.244Z,8.20
2022-08-17T10:54:25.748Z,8.60
2022-08-17T10:56:57.082Z,7.40
2022-08-17T10:59:37.732Z,7.60
2022-08-17T11:02:39.222Z,7.80
2022-08-17T11:05:46.836Z,8.20
2022-08-17T11:09:01.165Z,8.30
2022-08-17T11:12:07.472Z,7.20
2022-08-17T11:14:48.907Z,7.40
2022-08-17T11:17:35.506Z,7.80
2022-08-17T11:24:34.730Z,7.60
2022-08-17T11:27:05.985Z,6.60
2022-08-17T11:30:01.853Z,7.00
2022-08-17T11:32:48.682Z,6.80
2022-08-17T11:35:21.798Z,6.80
2022-08-17T11:38:03.370Z,6.70
2022-08-17T11:40:38.817Z,7.10
2022-08-17T11:43:43.700Z,7.70
2022-08-17T11:47:17.090Z,6.80
2022-08-17T11:50:36.716Z,7.00
2022-08-17T11:53:06.659Z,7.20
2022-08-17T11:55:39.407Z,6.70
2022-08-17T11:58:44.712Z,6.90
2022-08-17T12:01:22.857Z,6.80
2022-08-17T12:03:58.053Z,7.00
2022-08-17T12:06:51.123Z,7.00
2022-08-17T12:11:02.073Z,7.00
2022-08-17T12:19:50.985Z,5.90
2022-08-17T12:24:27.752Z,6.00
2022-08-17T12:27:46.204Z,5.50
2022-08-17T12:30:32.879Z,6.10
2022-08-17T12:33:01.598Z,5.80
2022-08-17T12:35:36.831Z,6.30
2022-08-17T12:44:04.080Z,5.80
2022-08-17T12:55:41.028Z,5.00
2022-08-17T12:58:14.711Z,5.00
2022-08-17T13:01:17.418Z,5.30
2022-08-17T13:14:11.678Z,4.50
2022-08-17T13:16:40.345Z,3.80
2022-08-17T13:19:15.459Z,3.50
2022-08-17T13:22:04.120Z,3.90
2022-08-17T13:24:53.322Z,3.90
2022-08-17T13:27:26.022Z,4.00
2022-08-17T13:30:00.320Z,3.80
2022-08-17T13:32:48.279Z,4.00
2022-08-17T13:35:45.884Z,4.00
2022-08-17T13:41:38.094Z,4.00
2022-08-17T13:44:37.137Z,4.10
2022-08-17T13:47:27.142Z,3.70
2022-08-17T13:49:56.346Z,3.80
2022-08-17T13:52:39.483Z,4.00
2022-08-17T13:55:32.282Z,4.00
2022-08-17T13:58:06.758Z,3.70
2022-08-17T14:00:36.977Z,3.50
2022-08-17T14:03:06.006Z,3.60
2022-08-17T14:05:37.425Z,3.40
2022-08-17T14:08:07.326Z,3.70
2022-08-17T14:10:36.849Z,3.40
2022-08-17T14:13:07.300Z,3.70
2022-08-17T14:15:55.725Z,3.40
2022-08-17T14:18:55.563Z,3.60
2022-08-17T14:21:14.085Z,3.40
2022-08-17T14:23:49.955Z,3.90
2022-08-17T14:26:26.834Z,3.70
2022-08-17T14:28:56.226Z,3.60
2022-08-17T14:33:34.175Z,3.90
2022-08-17T14:36:03.356Z,4.10
2022-08-17T14:38:32.715Z,4.10
2022-08-17T14:41:02.531Z,4.00
2022-08-17T14:43:35.516Z,4.00
2022-08-17T14:46:04.329Z,4.40
2022-08-17T14:48:35.186Z,4.10
2022-08-17T14:51:05.148Z,4.60
2022-08-17T14:53:43.407Z,4.50
2022-08-17T14:56:13.581Z,4.40
2022-08-17T14:58:42.789Z,4.00
2022-08-17T15:01:13.561Z,4.60
2022-08-17T15:03:42.976Z,4.40
2022-08-17T15:06:14.909Z,4.40
2022-08-17T15:08:45.151Z,4.20
2022-08-17T15:11:14.959Z,4.60
2022-08-17T15:13:52.480Z,4.50
2022-08-17T15:16:23.514Z,3.60
2022-08-17T15:18:52.974Z,5.40
2022-08-17T15:21:22.876Z,4.70
2022-08-17T15:23:51.619Z,5.20
2022-08-17T15:26:25.635Z,5.20
2022-08-17T15:28:56.347Z,5.00
2022-08-17T15:31:31.901Z,5.50
2022-08-17T15:34:01.324Z,5.50
2022-08-17T15:36:32.337Z,5.70
2022-08-17T15:39:01.057Z,5.40
2022-08-17T15:41:29.834Z,5.90
2022-08-17T15:43:58.551Z,5.20
2022-08-17T15:46:27.599Z,5.80
2022-08-17T15:48:59.461Z,5.50
2022-08-17T15:51:32.057Z,5.20
2022-08-17T15:54:19.046Z,5.40
2022-08-17T15:56:51.550Z,6.00
2022-08-17T15:59:20.387Z,6.50
2022-08-17T16:03:13.445Z,5.30
2022-08-17T16:04:40.339Z,6.10
2022-08-17T16:07:12.969Z,4.40
2022-08-17T16:09:42.230Z,4.70
2022-08-17T16:12:21.417Z,5.80
2022-08-17T16:14:51.988Z,6.10
2022-08-17T16:17:38.838Z,6.70
2022-08-17T16:20:20.472Z,7.70
2022-08-17T16:22:51.217Z,9.50
2022-08-17T16:25:38.865Z,10.80
2022-08-17T16:28:18.916Z,10.70
2022-08-17T16:30:47.625Z,11.40
2022-08-17T16:33:16.988Z,10.40
2022-08-17T16:35:45.607Z,10.40
2022-08-17T16:38:14.320Z,10.30
2022-08-17T16:40:42.959Z,9.40
2022-08-17T16:43:12.467Z,9.00
2022-08-17T16:45:42.631Z,7.40
2022-08-17T16:48:12.264Z,8.30
2022-08-17T16:50:41.039Z,8.90
2022-08-17T16:53:17.394Z,9.60
2022-08-17T16:55:48.995Z,9.50
2022-08-17T16:58:18.121Z,10.00
2022-08-17T17:00:48.946Z,10.60
2022-08-17T17:03:25.122Z,10.50
2022-08-17T17:05:59.920Z,10.80
2022-08-17T17:08:46.947Z,11.10
2022-08-17T17:11:44.406Z,10.00
2022-08-17T17:14:43.301Z,9.80
2022-08-17T17:17:24.327Z,9.30
2022-08-17T17:20:22.971Z,9.00
2022-08-17T17:23:23.216Z,9.70
2022-08-17T17:26:25.015Z,9.00
2022-08-17T17:29:09.330Z,10.30
2022-08-17T17:31:51.457Z,8.10
2022-08-17T17:34:21.225Z,9.40
2022-08-17T17:36:58.537Z,9.20
2022-08-17T17:39:46.232Z,9.40
2022-08-17T17:42:22.075Z,9.00
2022-08-17T17:45:26.277Z,10.40
2022-08-17T17:47:55.005Z,10.00
2022-08-17T17:50:38.377Z,9.80
2022-08-17T17:53:26.097Z,10.20
2022-08-17T17:56:40.522Z,10.90
2022-08-17T17:59:27.945Z,11.20
2022-08-17T18:02:51.967Z,10.00
2022-08-17T18:05:51.660Z,10.20
2022-08-17T18:08:38.267Z,10.40
2022-08-17T18:11:37.944Z,11.00
2022-08-17T18:14:45.959Z,10.60
2022-08-17T18:17:14.942Z,10.60
2022-08-17T18:19:43.540Z,11.10
2022-08-17T18:22:31.567Z,10.90
2022-08-17T18:25:00.176Z,11.40
2022-08-17T18:27:39.283Z,11.40
2022-08-17T18:30:14.097Z,11.40
2022-08-17T18:32:46.688Z,11.50
2022-08-17T18:35:15.242Z,10.90
2022-08-17T18:37:54.119Z,10.90
2022-08-17T18:40:33.563Z,11.60
2022-08-17T18:43:44.495Z,11.90
2022-08-17T18:46:29.714Z,12.60
2022-08-17T18:49:08.819Z,11.70
2022-08-17T18:51:43.169Z,11.90
2022-08-17T18:54:22.013Z,12.20
2022-08-17T18:56:59.397Z,12.70
2022-08-17T18:59:29.977Z,13.00
2022-08-17T19:01:59.343Z,14.00
2022-08-17T19:04:59.248Z,13.20
2022-08-17T19:07:38.349Z,14.20
2022-08-17T19:10:29.060Z,13.30
2022-08-17T19:13:23.921Z,13.40
2022-08-17T19:16:11.576Z,13.30
2022-08-17T19:18:56.945Z,13.40
2022-08-17T19:21:45.921Z,13.50
2022-08-17T19:24:23.147Z,13.10
2022-08-17T19:27:25.223Z,12.90
2022-08-17T19:30:12.471Z,12.80
2022-08-17T19:32:41.162Z,12.50
2022-08-17T19:35:17.166Z,13.70
2022-08-17T19:38:13.252Z,13.70
2022-08-17T19:41:37.473Z,13.40
2022-08-17T19:44:23.296Z,13.10
2022-08-17T19:47:43.787Z,12.90
2022-08-17T19:50:50.090Z,13.10
2022-08-17T19:54:04.473Z,12.40
2022-08-17T19:56:56.927Z,14.60
2022-08-17T20:00:02.510Z,14.20
2022-08-17T20:03:26.919Z,14.30
2022-08-17T20:07:19.549Z,15.40
2022-08-17T20:27:54.821Z,13.10
2022-08-17T20:30:56.505Z,13.80
2022-08-17T20:33:37.061Z,14.30
2022-08-17T20:36:20.548Z,14.30
2022-08-17T20:39:40.357Z,13.70
2022-08-17T20:46:11.930Z,14.70
2022-08-17T20:49:55.728Z,14.30
2022-08-17T20:52:55.289Z,14.80
2022-08-17T20:55:51.671Z,15.00
2022-08-17T20:58:31.129Z,14.70
2022-08-17T21:01:34.833Z,15.00
2022-08-17T21:04:09.283Z,14.90
2022-08-17T21:10:37.753Z,14.70
2022-08-17T21:13:13.803Z,14.50
2022-08-17T21:15:56.970Z,15.10
2022-08-17T21:18:39.232Z,14.60
2022-08-17T21:21:47.438Z,14.60
2022-08-17T21:24:47.912Z,15.20
2022-08-17T21:27:55.349Z,14.40
2022-08-17T21:30:28.642Z,14.50
2022-08-17T21:33:25.289Z,14.80
2022-08-17T21:35:59.575Z,14.60
2022-08-17T21:38:49.117Z,15.00
2022-08-17T21:41:29.133Z,15.80
2022-08-17T21:44:18.945Z,15.20
2022-08-17T21:46:50.832Z,16.10
2022-08-17T21:49:27.409Z,16.80
2022-08-17T21:51:59.234Z,16.30
2022-08-17T21:54:34.891Z,16.90
2022-08-17T21:57:16.279Z,16.50
2022-08-17T21:59:45.281Z,15.00
2022-08-17T22:02:43.758Z,16.10
2022-08-17T22:05:15.504Z,16.80
2022-08-17T22:08:21.824Z,16.50
2022-08-17T22:11:04.477Z,16.40
2022-08-17T22:13:38.822Z,17.20
2022-08-17T22:16:29.049Z,17.20
2022-08-17T22:19:05.266Z,18.10
2022-08-17T22:21:34.139Z,17.60
2022-08-17T22:24:18.227Z,17.30
2022-08-17T22:27:11.797Z,17.10
2022-08-17T22:30:22.466Z,17.10
2022-08-17T22:32:51.636Z,17.80
2022-08-17T22:35:43.701Z,18.50
2022-08-17T22:38:21.420Z,18.10
2022-08-17T22:40:58.143Z,19.20
2022-08-17T22:43:31.839Z,18.50
2022-08-17T22:46:09.249Z,18.90
2022-08-17T22:48:46.799Z,18.70
2022-08-17T22:51:23.551Z,19.00
2022-08-17T22:54:18.770Z,17.70
2022-08-17T22:57:19.960Z,20.20
2022-08-17T22:59:55.394Z,18.70
2022-08-17T23:02:28.970Z,19.70
2022-08-17T23:05:10.421Z,20.70
2022-08-17T23:07:45.170Z,20.40
2022-08-17T23:10:15.883Z,20.80
2022-08-17T23:12:44.619Z,19.90
2022-08-17T23:15:24.273Z,19.20
2022-08-17T23:17:55.817Z,19.70
2022-08-17T23:20:24.627Z,20.30
2022-08-17T23:22:53.660Z,18.90
2022-08-17T23:25:28.486Z,19.60
2022-08-17T23:28:01.756Z,20.00
2022-08-17T23:30:44.249Z,19.00
2022-08-17T23:33:39.329Z,19.50
2022-08-17T23:36:15.301Z,19.40
2022-08-17T23:38:47.105Z,20.10
2022-08-17T23:41:20.446Z,19.90
2022-08-17T23:43:53.462Z,18.80
2022-08-17T23:46:25.323Z,18.90
2022-08-17T23:48:54.388Z,20.50
2022-08-17T23:51:28.776Z,19.50
2022-08-17T23:54:11.823Z,19.40
2022-08-17T23:56:47.043Z,19.00
2022-08-17T23:59:18.835Z,18.40
